the time You need

,

KS Athlete ()

Nazionalitá:   --

Sesso:   --

Pettorale:   --

Categoria:   --

Società:   --

POS. ASSOLUTA

°

Gara

Granfondo Cittą di Ancona

Percorso

125.6 Km - LUNGO

Atleti arrivati

349

DETTAGLIO PRESTAZIONE

POSIZIONE ASSOLUTA °
TEMPO TOTALE
MEDIA Km/h
CATEGORIA
POSIZIONE CATEGORIA °

Intermedi

PRESTAZIONE A CONFRONTO
ASSOLUTO

NOME Christian Barchi
° POSIZIONE ASSOLUTA
TEMPO ASSOLUTO 03:13:52.26
Km/h MEDIA PRIMO ASSOLUTO 39,00 Km/h

PRESTAZIONE A CONFRONTO
CATEGORIA

NOME Christian Barchi
° POSIZIONE CATEGORIA
TEMPO PRIMO DI CATEGORIA 03:13:52.26
Km/h MEDIA PRIMO CATEGORIA 39,00 Km/h


 
Grafico Edizioni Precedenti
Risulta una sola edizione, grafico non disponibile.
 
Pos Anno Cat PosCat Sex PosSex Tempo Media RealTime
 

 
Team
Pos Atleta Cat PosCat Tempo Media RealTime
BARCHI CHRISTIAN ELMT 1 03:13:52.26 39,00 03:13:28.28
ZANETTI IGOR M2 1 03:13:52.27 39,00 03:13:28.28
FEDELE MANUEL M1 1 03:21:10.18 37,58 03:20:54.54
BUSBANI GIAMPAOLO M3 1 03:21:10.19 37,58 03:21:06.06
CICCARESE STEFANO M3 2 03:22:13.25 37,39 03:21:55.25
AUFIERO DAVIDE M2 2 03:22:29.24 37,34 03:22:01.14
MARSILII ALESSANDRO M3 3 03:23:11.90 37,21 03:22:44.00
CELANI EMIDIO M3 4 03:23:12.22 37,20 03:22:40.40
FIORETTI RICCARDO ELMT 2 03:23:41.61 37,12 03:23:16.01
10° MENCARONI LUCIANO M3 5 03:23:41.92 37,12 03:23:40.02
11° LAGHI FABIO M4 1 03:23:42.01 37,11 03:23:19.19
12° BARTOLUCCI MANUEL M2 3 03:23:42.43 37,11 03:23:17.23
13° RUBECHINI LUCA M4 2 03:23:42.72 37,11 03:23:31.42
14° RIPAMONTI LUCA M3 6 03:23:42.73 37,11 03:23:33.33
15° PINTON CRISTIAN M1 2 03:23:42.91 37,11 03:23:41.91
16° CENTORAME GABRIELE M2 4 03:23:43.30 37,11 03:23:27.27
17° D“ASCENZO WLADIMIRO M4 3 03:23:43.31 37,11 03:23:12.11
18° LUCERTONI DAVID M1 3 03:23:43.59 37,11 03:23:13.19
19° SPOLETINI MASSIMO M5 1 03:23:43.60 37,11 03:23:27.27
20° SPADA MARCO M3 7 03:23:43.82 37,11 03:23:13.42
21° PESCIAROLI CESARE M3 8 03:23:43.83 37,11 03:23:19.63
22° MELE RENZO M4 4 03:23:44.34 37,11 03:23:06.06
23° GIANNESSI ANDREA M3 9 03:23:44.95 37,11 03:23:34.05
24° RICCIONI GIOVANNI M5 2 03:23:45.49 37,10 03:23:05.05
25° GIOVANE SILVIO M3 10 03:23:57.71 37,07 03:23:53.11
26° FURLANI DAVIDE M4 5 03:28:15.38 36,30 03:28:09.18
27° BOSI MASSIMO M4 6 03:28:15.97 36,30 03:28:08.77
28° ORAZI JURI M1 4 03:28:32.75 36,25 03:28:07.15
29° SALLADINI LORIS M3 11 03:28:32.94 36,25 03:28:06.94
30° SERAFINI CRISTIAN M3 12 03:28:43.19 36,22 03:28:26.26
31° PESARESI ALBERTO M4 7 03:28:44.15 36,22 03:28:15.15
32° DAZZANI WILLIAM M5 3 03:28:56.82 36,18 03:28:33.32
33° RIDOLFI MICHELE M6 1 03:28:57.05 36,18 03:28:55.05
34° MIGLIONICO MICHELE M3 13 03:28:58.28 36,18 03:28:27.27
35° FELICI GIANLUCA M3 14 03:28:59.31 36,18 03:28:59.21
36° GUALANO MATTEO M3 15 03:28:59.32 36,18 03:28:41.12
37° GARDINI CRISTIANO M3 16 03:28:59.33 36,18 03:28:41.41
38° POETA EMANUELE M1 5 03:28:59.51 36,18 03:28:56.21
39° GRECO DANIELE ELMT 3 03:28:59.52 36,18 03:28:53.32
40° COLLELUORI MARCO M4 8 03:28:59.93 36,18 03:28:47.13
41° SOCCI FAUSTINO M6 2 03:28:59.94 36,18 03:28:25.64
42° LANCONELLI FLAVIO M4 9 03:29:00.09 36,17 03:28:34.34
43° DESSI GIANLUCA M3 17 03:29:00.28 36,17 03:28:45.18
44° GIULIODORI GIACOMO M3 18 03:29:00.79 36,17 03:28:40.40
45° ANDRENACCI EMIDIO M3 19 03:29:01.27 36,17 03:28:35.35
46° ANTONIOLI MIRKO M3 20 03:29:02.67 36,17 03:28:42.37
47° LANCIONI BARBARA W1 1 03:29:02.68 36,17 03:28:47.47
48° SPACCIA VALENTINO ELMT 4 03:29:13.49 36,13 03:28:51.51
49° STECCA DENIS M3 21 03:30:02.12 35,99 03:30:02.12
50° ZANOTTI GIANLUCA ELMT 5 03:34:38.52 35,22 03:33:31.32
51° MASOTTI RICCARDO M6 3 03:34:38.65 35,22 03:34:38.15
52° ANTONIONI LUCA M2 5 03:34:38.78 35,22 03:34:06.78
53° BERTOZZI DAVIDE M5 4 03:34:38.96 35,22 03:34:16.86
54° FRISONI GUIDO M4 10 03:34:39.00 35,22 03:34:39.00
55° MICHETTI BERNARDINO M4 11 03:34:39.55 35,22 03:34:28.25
56° MERLI ENRICO M1 6 03:34:39.70 35,22 03:34:34.34
57° MENICONI FABIO M2 6 03:34:39.88 35,22 03:34:10.58
58° DELLA BARTOLA FABIO M2 7 03:34:40.43 35,22 03:34:20.20
59° GUERRINI IVANO M4 12 03:34:41.19 35,21 03:34:35.35
60° MAZZAVILLANI PAOLO M4 13 03:34:41.22 35,21 03:34:23.22
61° BRAGAGNA GIAN LUCA M3 22 03:34:41.64 35,21 03:34:24.44
62° RAIMONDI GIOVANNI FILIPPO M3 23 03:34:41.65 35,21 03:34:08.65
63° BOFFI FRANCO M6 4 03:34:42.83 35,21 03:34:02.43
64° GNUCCI MATTEO M3 24 03:34:43.73 35,21 03:34:43.73
65° BRANCHESI LUCA M1 7 03:35:04.52 35,15 03:34:19.19
66° PANICCIA“ GIUSEPPE M4 14 03:35:18.59 35,11 03:34:16.16
67° MARIANI GIANLUCA M4 15 03:35:56.17 35,01 03:35:54.17
68° MARCHETTI MASSIMO M5 5 03:35:56.36 35,01 03:35:50.50
69° BERTI GIANLUCA ELMT 6 03:36:10.06 34,97 03:35:02.02
70° VALENTINI FABRIZIO M4 16 03:36:10.66 34,97 03:35:33.06
71° DE GASPERI ROBERTO ELMT 7 03:36:10.77 34,97 03:34:57.57
72° CAMARRA DOMENICO M2 8 03:36:10.78 34,97 03:34:44.08
73° PRINCIPI FRANCESCO M1 8 03:36:12.30 34,97 03:35:22.22
74° ROSATI GIUSEPPE M5 6 03:36:12.71 34,97 03:35:59.01
75° CIANI MASSIMO M3 25 03:36:12.97 34,97 03:35:27.17
76° SAVINI MATTEO M1 9 03:36:13.23 34,96 03:36:11.11
77° LAZZARI FRANCESCO M1 10 03:36:13.62 34,96 03:35:31.52
78° FINOCCHI UMBERTO M1 11 03:36:15.91 34,96 03:35:26.61
79° PAMBIANCO FILIPPO M2 9 03:36:17.54 34,95 03:35:22.14
80° SILVA STEFANO M2 10 03:36:17.61 34,95 03:35:50.50
81° BARBAROSSA ALESSANDRO M1 12 03:36:17.85 34,95 03:35:19.15
82° TONDI ANTONIO M4 17 03:36:17.86 34,95 03:35:48.66
83° STRADA GIULIANO M4 18 03:36:17.87 34,95 03:35:42.77
84° DONINI SIMONE M3 26 03:36:18.33 34,95 03:36:06.06
85° SILVETTI MANUEL AMILCARE M5 7 03:36:18.34 34,95 03:35:12.12
86° VECCIOLINI FABIO M2 11 03:36:18.48 34,95 03:35:16.16
87° NARDI GIANCARLO M5 8 03:36:18.54 34,95 03:36:10.10
88° PRINCIPI LUCA M2 12 03:36:18.71 34,95 03:35:30.30
89° SABATUCCI GIUSEPPE M4 19 03:36:18.75 34,95 03:36:10.55
90° PIERDOMINICI MANUEL M4 20 03:36:19.68 34,95 03:35:48.48
91° SPALLETTI DANIELE M4 21 03:36:19.69 34,95 03:35:45.39
92° GAROFALO DOMENICO M5 9 03:36:19.70 34,95 03:36:09.09
93° SERVADIO SANDRO M4 22 03:36:21.74 34,94 03:36:11.34
94° GERVASI SIMONE M1 13 03:36:22.88 34,94 03:35:11.18
95° GIULIANELLI MORENO M5 10 03:36:23.35 34,94 03:36:23.35
96° PRINCIPI FILIPPO M1 14 03:36:26.09 34,93 03:35:36.36
97° DONATI LUCA M2 13 03:36:26.28 34,93 03:35:54.54
98° VALLONI ROBERTO M4 23 03:36:26.35 34,93 03:35:52.05
99° ZANNONI RICCARDO M7 1 03:36:26.70 34,93 03:36:05.05
100° BERARDI GIANCARLO M5 11 03:36:26.97 34,93 03:35:52.67
 

ELENCO GARE VISUALIZZAZIONE ESTESA

Data
Evento
Posizione
Punti
Km
Sport